Time;durP1;ratioP1;P1;durP2;ratioP2;P2;SDS_P1;SDS_P2;PMS_P1;PMS_P2;Temp;Humidity;BMP_temperature;BMP_pressure;BME280_temperature;BME280_humidity;BME280_pressure;Samples;Min_cycle;Max_cycle;Signal;HPM_P1;HPM_P2
2021/10/18 00:00:35;;;;;;;22.15;12.18;;;;;;;;;;5072480;28;20021;-63
2021/10/18 00:03:01;;;;;;;21.48;12.05;;;;;;;;;;5054502;28;20071;-63
2021/10/18 00:05:27;;;;;;;21.98;12.07;;;;;;;;;;5072436;28;20414;-63
2021/10/18 00:07:53;;;;;;;23.27;13.00;;;;;;;;;;5072009;28;20025;-63
2021/10/18 00:10:19;;;;;;;22.42;12.43;;;;;;;;;;5053510;28;20039;-63
2021/10/18 00:15:16;;;;;;;26.17;12.68;;;;;;;;;;5091889;28;20399;-64
2021/10/18 00:17:42;;;;;;;23.63;12.85;;;;;;;;;;5091680;28;20472;-62
2021/10/18 00:20:09;;;;;;;23.77;12.68;;;;;;;;;;5092710;28;20035;-62
2021/10/18 00:22:35;;;;;;;21.95;13.10;;;;;;;;;;5092443;28;20027;-63
2021/10/18 00:25:02;;;;;;;23.65;12.40;;;;;;;;;;5092233;28;20352;-62
2021/10/18 00:27:28;;;;;;;22.02;12.60;;;;;;;;;;5091519;28;20039;-59
2021/10/18 00:29:54;;;;;;;23.73;13.10;;;;;;;;;;5094133;28;20016;-61
2021/10/18 00:32:19;;;;;;;23.25;11.52;;;;;;;;;;5093783;28;20573;-60
2021/10/18 00:34:45;;;;;;;21.73;12.20;;;;;;;;;;5093356;28;20020;-62
2021/10/18 00:37:11;;;;;;;24.77;12.77;;;;;;;;;;5092930;28;20111;-62
2021/10/18 00:39:37;;;;;;;21.65;11.60;;;;;;;;;;5092937;28;20028;-61
2021/10/18 00:42:04;;;;;;;22.10;11.50;;;;;;;;;;5093060;28;20069;-61
2021/10/18 00:44:31;;;;;;;21.58;11.95;;;;;;;;;;5092983;28;20024;-60
2021/10/18 00:46:57;;;;;;;21.50;11.90;;;;;;;;;;5091267;28;20114;-64
2021/10/18 00:49:23;;;;;;;21.40;11.98;;;;;;;;;;5091684;28;20077;-64
2021/10/18 00:51:49;;;;;;;22.38;11.85;;;;;;;;;;5092739;28;20058;-64
2021/10/18 00:54:16;;;;;;;22.02;12.10;;;;;;;;;;5092791;28;20074;-64
2021/10/18 00:56:43;;;;;;;23.98;12.25;;;;;;;;;;5091517;28;20027;-62
2021/10/18 00:59:09;;;;;;;22.75;12.07;;;;;;;;;;5091930;28;20374;-61
2021/10/18 01:01:35;;;;;;;22.70;11.52;;;;;;;;;;5091649;28;20024;-61
2021/10/18 01:04:03;;;;;;;21.40;12.52;;;;;;;;;;5091200;28;20031;-61
2021/10/18 01:06:29;;;;;;;20.73;12.07;;;;;;;;;;5092300;28;20030;-61
2021/10/18 01:08:55;;;;;;;21.67;11.50;;;;;;;;;;5091204;28;20028;-61
2021/10/18 01:11:21;;;;;;;22.45;12.63;;;;;;;;;;5091035;28;20024;-61
2021/10/18 01:13:48;;;;;;;25.02;12.63;;;;;;;;;;5092261;28;20028;-61
2021/10/18 01:16:15;;;;;;;21.65;12.30;;;;;;;;;;5092340;28;20346;-61
2021/10/18 01:18:41;;;;;;;21.35;12.32;;;;;;;;;;5091037;28;20040;-61
2021/10/18 01:21:07;;;;;;;22.88;12.95;;;;;;;;;;5090859;28;20407;-61
2021/10/18 01:23:33;;;;;;;23.02;12.75;;;;;;;;;;5090972;28;20008;-61
2021/10/18 01:25:59;;;;;;;20.95;12.32;;;;;;;;;;5092000;28;20111;-61
2021/10/18 01:28:25;;;;;;;25.85;14.32;;;;;;;;;;5092211;28;20116;-61
2021/10/18 01:30:51;;;;;;;23.70;12.52;;;;;;;;;;5090896;28;20078;-62
2021/10/18 01:33:17;;;;;;;24.25;13.93;;;;;;;;;;5092112;28;20068;-62
2021/10/18 01:35:43;;;;;;;22.92;13.02;;;;;;;;;;5090526;28;20016;-62
2021/10/18 01:38:09;;;;;;;26.23;13.98;;;;;;;;;;5091484;28;20039;-62
2021/10/18 01:40:35;;;;;;;22.92;12.85;;;;;;;;;;5092020;28;20051;-62
2021/10/18 01:43:02;;;;;;;22.95;13.15;;;;;;;;;;5091882;28;20085;-61
2021/10/18 01:45:28;;;;;;;22.02;12.98;;;;;;;;;;5090620;28;20482;-60
2021/10/18 01:47:54;;;;;;;22.95;13.77;;;;;;;;;;5090330;28;20123;-61
2021/10/18 01:50:21;;;;;;;21.58;13.20;;;;;;;;;;5091812;28;20180;-62
2021/10/18 01:52:48;;;;;;;22.08;13.68;;;;;;;;;;5091746;28;20130;-62
2021/10/18 01:55:14;;;;;;;24.83;12.93;;;;;;;;;;5091739;28;20047;-62
2021/10/18 01:57:40;;;;;;;22.02;12.95;;;;;;;;;;5091607;28;20539;-62
2021/10/18 02:00:07;;;;;;;23.23;13.88;;;;;;;;;;5091823;28;20024;-60
2021/10/18 02:02:33;;;;;;;24.38;12.48;;;;;;;;;;5091862;28;20023;-62
2021/10/18 02:04:59;;;;;;;22.50;12.98;;;;;;;;;;5090566;28;20031;-62
2021/10/18 02:07:25;;;;;;;23.17;12.18;;;;;;;;;;5090307;28;20098;-62
2021/10/18 02:09:52;;;;;;;26.73;13.25;;;;;;;;;;5090464;28;20357;-62
2021/10/18 02:12:19;;;;;;;24.27;13.00;;;;;;;;;;5091706;28;20040;-62
2021/10/18 02:14:45;;;;;;;22.20;12.77;;;;;;;;;;5090265;28;20060;-62
2021/10/18 02:17:11;;;;;;;23.02;12.77;;;;;;;;;;5090219;28;20484;-62
2021/10/18 02:19:36;;;;;;;25.33;13.00;;;;;;;;;;5091622;28;20107;-60
2021/10/18 02:22:02;;;;;;;22.73;12.82;;;;;;;;;;5091780;28;20031;-62
2021/10/18 02:24:28;;;;;;;24.55;13.52;;;;;;;;;;5091607;28;20024;-62
2021/10/18 02:26:54;;;;;;;22.95;13.05;;;;;;;;;;5091327;28;20020;-61
2021/10/18 02:29:20;;;;;;;23.60;12.95;;;;;;;;;;5091695;28;20467;-62
2021/10/18 02:31:47;;;;;;;21.38;11.93;;;;;;;;;;5090013;28;20043;-62
2021/10/18 02:34:13;;;;;;;20.98;11.65;;;;;;;;;;5092203;28;20085;-63
2021/10/18 02:36:39;;;;;;;22.70;12.18;;;;;;;;;;5093871;28;20483;-62
2021/10/18 02:39:05;;;;;;;23.75;11.75;;;;;;;;;;5093914;28;20028;-62
2021/10/18 02:41:31;;;;;;;21.52;12.20;;;;;;;;;;5095241;28;20024;-62
2021/10/18 02:43:57;;;;;;;23.98;12.75;;;;;;;;;;5095287;28;20035;-61
2021/10/18 02:46:23;;;;;;;21.75;12.27;;;;;;;;;;5095180;28;20082;-62
2021/10/18 02:48:49;;;;;;;21.95;12.10;;;;;;;;;;5094814;28;20043;-62
2021/10/18 02:51:15;;;;;;;21.45;12.63;;;;;;;;;;5093826;28;20439;-62
2021/10/18 02:53:41;;;;;;;22.88;12.27;;;;;;;;;;5093745;28;20020;-62
2021/10/18 02:56:07;;;;;;;21.30;12.50;;;;;;;;;;5093439;28;20068;-61
2021/10/18 02:58:33;;;;;;;21.92;12.30;;;;;;;;;;5094980;28;20024;-62
2021/10/18 03:00:59;;;;;;;22.25;12.50;;;;;;;;;;5094934;28;20349;-62
2021/10/18 03:03:25;;;;;;;24.67;13.43;;;;;;;;;;5095001;28;20039;-62
2021/10/18 03:05:51;;;;;;;20.70;11.63;;;;;;;;;;5093360;28;20089;-63
2021/10/18 03:08:17;;;;;;;26.38;15.23;;;;;;;;;;5094630;28;20468;-62
2021/10/18 03:10:43;;;;;;;24.23;14.02;;;;;;;;;;5094788;28;20420;-61
2021/10/18 03:13:10;;;;;;;38.47;26.00;;;;;;;;;;5093216;28;20118;-62
2021/10/18 03:15:36;;;;;;;23.80;13.63;;;;;;;;;;5093426;28;20031;-62
2021/10/18 03:18:02;;;;;;;40.42;26.38;;;;;;;;;;5093319;28;20020;-62
2021/10/18 03:20:28;;;;;;;24.15;12.73;;;;;;;;;;5093974;28;20030;-62
2021/10/18 03:22:54;;;;;;;23.52;12.32;;;;;;;;;;5095159;28;20077;-60
2021/10/18 03:25:20;;;;;;;19.92;10.73;;;;;;;;;;5095106;28;20483;-62
2021/10/18 03:27:46;;;;;;;21.77;11.32;;;;;;;;;;5093342;28;20114;-62
2021/10/18 03:30:12;;;;;;;22.98;11.90;;;;;;;;;;5093054;28;20510;-63
2021/10/18 03:32:38;;;;;;;19.30;10.40;;;;;;;;;;5093029;28;20012;-62
2021/10/18 03:35:05;;;;;;;20.00;10.52;;;;;;;;;;5094406;28;20089;-63
2021/10/18 03:37:31;;;;;;;20.52;10.88;;;;;;;;;;5092884;28;20051;-62
2021/10/18 03:39:57;;;;;;;22.35;11.38;;;;;;;;;;5092619;28;20066;-62
2021/10/18 03:42:23;;;;;;;20.98;11.40;;;;;;;;;;5093922;28;20048;-62
2021/10/18 03:44:50;;;;;;;20.10;11.02;;;;;;;;;;5091732;28;20060;-62
2021/10/18 03:47:16;;;;;;;20.38;11.00;;;;;;;;;;5093735;28;20093;-62
2021/10/18 03:49:42;;;;;;;21.52;11.20;;;;;;;;;;5094013;28;20020;-62
2021/10/18 03:52:08;;;;;;;21.73;11.18;;;;;;;;;;5092660;28;20383;-62
2021/10/18 03:54:34;;;;;;;20.40;10.98;;;;;;;;;;5094595;28;20031;-62
2021/10/18 03:57:00;;;;;;;21.27;11.55;;;;;;;;;;5094124;28;20024;-63
2021/10/18 03:59:26;;;;;;;19.65;10.90;;;;;;;;;;5093042;28;20399;-61
2021/10/18 04:01:52;;;;;;;20.65;11.32;;;;;;;;;;5092614;28;20026;-62
2021/10/18 04:04:18;;;;;;;22.13;11.95;;;;;;;;;;5093674;28;20045;-62
2021/10/18 04:06:44;;;;;;;20.42;10.38;;;;;;;;;;5093303;28;20024;-62
2021/10/18 04:09:10;;;;;;;19.73;9.65;;;;;;;;;;5092357;28;20518;-62
2021/10/18 04:11:39;;;;;;;25.10;9.90;;;;;;;;;;5092400;28;20023;-62
2021/10/18 04:14:06;;;;;;;19.52;9.95;;;;;;;;;;5093797;28;20028;-61
2021/10/18 04:16:32;;;;;;;21.02;10.77;;;;;;;;;;5093319;28;20020;-62
2021/10/18 04:18:58;;;;;;;23.55;11.80;;;;;;;;;;5093470;28;20016;-61
2021/10/18 04:21:24;;;;;;;20.15;11.43;;;;;;;;;;5093625;28;20095;-61
2021/10/18 04:23:50;;;;;;;19.88;10.02;;;;;;;;;;5093397;28;20067;-62
2021/10/18 04:26:16;;;;;;;20.35;9.73;;;;;;;;;;5092842;28;20068;-60
2021/10/18 04:28:42;;;;;;;20.60;10.00;;;;;;;;;;5091794;28;20023;-61
2021/10/18 04:31:08;;;;;;;19.45;9.95;;;;;;;;;;5093159;28;20027;-62
2021/10/18 04:33:34;;;;;;;18.85;10.00;;;;;;;;;;5092031;28;20379;-60
2021/10/18 04:36:00;;;;;;;22.80;10.45;;;;;;;;;;5092934;28;20016;-61
2021/10/18 04:38:27;;;;;;;21.92;10.32;;;;;;;;;;5091302;28;20107;-61
2021/10/18 04:40:53;;;;;;;20.70;10.30;;;;;;;;;;5092984;28;20425;-61
2021/10/18 04:43:19;;;;;;;21.95;11.57;;;;;;;;;;5092800;28;20117;-59
2021/10/18 04:45:45;;;;;;;19.90;10.40;;;;;;;;;;5092624;28;20028;-61
2021/10/18 04:48:11;;;;;;;23.00;11.77;;;;;;;;;;5092796;28;20543;-63
2021/10/18 04:50:37;;;;;;;19.08;9.70;;;;;;;;;;5092721;28;20434;-63
2021/10/18 04:53:03;;;;;;;20.45;10.70;;;;;;;;;;5092679;28;20081;-61
2021/10/18 04:55:29;;;;;;;21.02;10.50;;;;;;;;;;5091255;28;20496;-60
2021/10/18 04:57:56;;;;;;;19.95;10.88;;;;;;;;;;5090897;28;20051;-61
2021/10/18 05:00:23;;;;;;;20.70;12.10;;;;;;;;;;5092438;28;20077;-60
2021/10/18 05:02:49;;;;;;;19.63;10.75;;;;;;;;;;5091068;28;20028;-59
2021/10/18 05:05:15;;;;;;;21.50;12.43;;;;;;;;;;5092557;28;20024;-60
2021/10/18 05:07:41;;;;;;;20.17;10.70;;;;;;;;;;5089935;28;20016;-61
2021/10/18 05:10:11;;;;;;;19.98;11.07;;;;;;;;;;5090909;28;20121;-62
2021/10/18 05:12:37;;;;;;;24.38;12.20;;;;;;;;;;5092286;28;20040;-62
2021/10/18 05:15:04;;;;;;;22.38;11.32;;;;;;;;;;5090355;28;20031;-62
2021/10/18 05:17:30;;;;;;;20.05;11.18;;;;;;;;;;5070540;28;20578;-62
2021/10/18 05:19:56;;;;;;;20.05;10.45;;;;;;;;;;5071959;28;20020;-62
2021/10/18 05:22:22;;;;;;;21.67;10.75;;;;;;;;;;5070376;28;20353;-62
2021/10/18 05:24:48;;;;;;;21.25;11.25;;;;;;;;;;5082344;28;20031;-62
2021/10/18 05:27:14;;;;;;;21.23;10.48;;;;;;;;;;5090590;28;20104;-62
2021/10/18 05:29:40;;;;;;;21.33;10.82;;;;;;;;;;5092163;28;20024;-62
2021/10/18 05:32:06;;;;;;;24.73;11.75;;;;;;;;;;5092042;28;20028;-62
2021/10/18 05:34:32;;;;;;;20.45;11.23;;;;;;;;;;5092117;28;20478;-62
2021/10/18 05:36:58;;;;;;;20.25;10.23;;;;;;;;;;5091747;28;20056;-62
2021/10/18 05:39:24;;;;;;;18.95;10.07;;;;;;;;;;5090234;28;20093;-62
2021/10/18 05:41:50;;;;;;;20.05;10.43;;;;;;;;;;5081815;28;20075;-62
2021/10/18 05:44:16;;;;;;;21.30;12.88;;;;;;;;;;5070324;28;20131;-62
2021/10/18 05:46:42;;;;;;;18.83;10.13;;;;;;;;;;5071540;28;20024;-61
2021/10/18 05:49:08;;;;;;;19.17;10.43;;;;;;;;;;5071834;28;20013;-61
2021/10/18 05:51:36;;;;;;;19.60;10.40;;;;;;;;;;5070334;28;20111;-61
2021/10/18 05:54:02;;;;;;;19.23;10.38;;;;;;;;;;5070469;28;20029;-61
2021/10/18 05:56:28;;;;;;;21.80;10.75;;;;;;;;;;5071429;28;20027;-62
2021/10/18 05:58:54;;;;;;;19.23;9.93;;;;;;;;;;5070402;28;20016;-60
2021/10/18 06:01:20;;;;;;;19.17;10.48;;;;;;;;;;5071468;28;20029;-61
2021/10/18 06:03:46;;;;;;;20.27;10.32;;;;;;;;;;5071264;28;20028;-61
2021/10/18 06:06:12;;;;;;;20.30;9.80;;;;;;;;;;5071194;28;20020;-61
2021/10/18 06:08:38;;;;;;;21.75;11.98;;;;;;;;;;5082997;28;20113;-61
2021/10/18 06:11:04;;;;;;;20.60;10.35;;;;;;;;;;5094050;28;20023;-62
2021/10/18 06:13:31;;;;;;;23.65;10.32;;;;;;;;;;5095524;28;20028;-62
2021/10/18 06:15:57;;;;;;;23.05;11.25;;;;;;;;;;5104811;22;20040;-64
2021/10/18 06:18:23;;;;;;;19.67;10.43;;;;;;;;;;5071897;28;20056;-62
2021/10/18 06:20:51;;;;;;;21.10;11.07;;;;;;;;;;5072195;28;20025;-64
2021/10/18 06:23:18;;;;;;;20.83;10.63;;;;;;;;;;5072188;28;20094;-64
2021/10/18 06:25:44;;;;;;;20.85;11.55;;;;;;;;;;5071797;28;20060;-64
2021/10/18 06:28:11;;;;;;;21.77;10.82;;;;;;;;;;5071833;28;20083;-62
2021/10/18 06:30:38;;;;;;;20.27;9.95;;;;;;;;;;5072248;28;20468;-63
2021/10/18 06:33:04;;;;;;;20.35;11.15;;;;;;;;;;5072149;28;20052;-64
2021/10/18 06:35:31;;;;;;;21.02;11.48;;;;;;;;;;5071753;28;20104;-62
2021/10/18 06:37:57;;;;;;;19.00;10.60;;;;;;;;;;5071863;28;20055;-63
2021/10/18 06:40:23;;;;;;;19.08;10.77;;;;;;;;;;5071712;28;20024;-64
2021/10/18 06:42:49;;;;;;;18.63;10.02;;;;;;;;;;5071800;28;20025;-64
2021/10/18 06:45:15;;;;;;;18.08;9.52;;;;;;;;;;5072119;28;20020;-64
2021/10/18 06:47:41;;;;;;;19.80;10.95;;;;;;;;;;5071479;28;20033;-64
2021/10/18 06:50:08;;;;;;;22.55;11.52;;;;;;;;;;5071672;28;20020;-64
2021/10/18 06:52:40;;;;;;;18.83;10.32;;;;;;;;;;5071617;28;20024;-64
2021/10/18 06:55:08;;;;;;;21.73;11.25;;;;;;;;;;5071190;28;20025;-64
2021/10/18 06:57:34;;;;;;;20.80;10.67;;;;;;;;;;5071522;28;20021;-63
2021/10/18 07:00:00;;;;;;;19.85;10.70;;;;;;;;;;5071223;28;20028;-62
2021/10/18 07:02:26;;;;;;;23.17;11.25;;;;;;;;;;5071345;28;20464;-63
2021/10/18 07:04:53;;;;;;;21.85;11.02;;;;;;;;;;5071358;28;20028;-64
2021/10/18 07:07:19;;;;;;;20.55;10.43;;;;;;;;;;5070709;28;20024;-64
2021/10/18 07:09:45;;;;;;;19.63;10.35;;;;;;;;;;5071270;28;20047;-64
2021/10/18 07:12:11;;;;;;;19.00;10.98;;;;;;;;;;5071202;28;20067;-64
2021/10/18 07:14:37;;;;;;;21.00;10.77;;;;;;;;;;5070995;28;20037;-64
2021/10/18 07:17:03;;;;;;;19.27;10.43;;;;;;;;;;5071364;28;20020;-63
2021/10/18 07:19:29;;;;;;;19.20;10.07;;;;;;;;;;5070914;28;20150;-63
2021/10/18 07:21:56;;;;;;;21.08;10.40;;;;;;;;;;5071101;28;20120;-69
2021/10/18 07:24:22;;;;;;;20.77;10.63;;;;;;;;;;5071528;28;20024;-69
2021/10/18 07:26:50;;;;;;;21.45;11.05;;;;;;;;;;5070813;28;20127;-67
2021/10/18 07:29:16;;;;;;;20.05;10.48;;;;;;;;;;5071019;28;20017;-69
2021/10/18 07:31:43;;;;;;;19.48;10.20;;;;;;;;;;5071214;28;20426;-68
2021/10/18 07:34:17;;;;;;;20.75;10.63;;;;;;;;;;5070735;28;20115;-68
2021/10/18 07:36:48;;;;;;;20.52;10.75;;;;;;;;;;5070837;28;20085;-73
2021/10/18 07:39:16;;;;;;;24.00;11.45;;;;;;;;;;5071281;28;20068;-69
2021/10/18 07:41:42;;;;;;;19.67;10.23;;;;;;;;;;5070580;28;20075;-69
2021/10/18 07:44:08;;;;;;;21.23;12.40;;;;;;;;;;5070819;28;20033;-70
2021/10/18 07:46:34;;;;;;;20.77;11.40;;;;;;;;;;5071738;28;20518;-68
2021/10/18 07:49:01;;;;;;;21.25;12.00;;;;;;;;;;5073282;28;20043;-68
2021/10/18 07:51:27;;;;;;;26.60;14.68;;;;;;;;;;5073558;28;20329;-67
2021/10/18 07:53:53;;;;;;;21.33;11.05;;;;;;;;;;5073641;28;20484;-69
2021/10/18 07:56:19;;;;;;;20.02;10.90;;;;;;;;;;5073047;28;20048;-70
2021/10/18 07:58:45;;;;;;;21.17;11.73;;;;;;;;;;5073419;28;20032;-69
2021/10/18 08:01:11;;;;;;;21.40;11.40;;;;;;;;;;5073497;28;20033;-69
2021/10/18 08:03:37;;;;;;;21.67;10.90;;;;;;;;;;5073274;28;20071;-69
2021/10/18 08:06:03;;;;;;;20.05;11.25;;;;;;;;;;5073410;28;20122;-69
2021/10/18 08:08:40;;;;;;;20.05;11.45;;;;;;;;;;5073808;28;20044;-70
2021/10/18 08:11:07;;;;;;;22.45;12.93;;;;;;;;;;5073931;28;20061;-69
2021/10/18 08:13:33;;;;;;;21.25;12.07;;;;;;;;;;5073125;28;20020;-69
2021/10/18 08:15:59;;;;;;;20.20;12.25;;;;;;;;;;5073193;28;20469;-70
2021/10/18 08:18:25;;;;;;;23.27;12.98;;;;;;;;;;5073447;28;20055;-68
2021/10/18 08:20:51;;;;;;;20.15;12.23;;;;;;;;;;5072550;28;20027;-68
2021/10/18 08:23:17;;;;;;;19.88;12.98;;;;;;;;;;5073001;28;20029;-69
2021/10/18 08:25:43;;;;;;;21.02;12.73;;;;;;;;;;5072408;28;20476;-69
2021/10/18 08:28:09;;;;;;;20.75;12.82;;;;;;;;;;5072955;28;20024;-69
2021/10/18 08:30:35;;;;;;;20.27;12.43;;;;;;;;;;5073194;28;20056;-68
2021/10/18 08:33:01;;;;;;;19.00;11.27;;;;;;;;;;5072653;28;20056;-68
2021/10/18 08:35:27;;;;;;;20.17;12.88;;;;;;;;;;5073192;28;20103;-69
2021/10/18 08:40:43;;;;;;;22.27;13.07;;;;;;;;;;5073902;28;20036;-69
2021/10/18 08:45:41;;;;;;;19.50;12.45;;;;;;;;;;5070418;28;20032;-64
2021/10/18 08:48:09;;;;;;;20.42;13.18;;;;;;;;;;5068985;28;20032;-63
2021/10/18 08:50:35;;;;;;;21.20;12.23;;;;;;;;;;5069347;28;20043;-63
2021/10/18 08:53:02;;;;;;;22.48;12.88;;;;;;;;;;5069288;28;20025;-63
2021/10/18 08:55:28;;;;;;;18.08;11.90;;;;;;;;;;5069117;28;20033;-62
2021/10/18 08:57:54;;;;;;;22.67;13.15;;;;;;;;;;5068898;28;20027;-63
2021/10/18 09:00:35;;;;;;;21.13;13.30;;;;;;;;;;5068849;28;20135;-60
2021/10/18 09:03:01;;;;;;;19.58;13.05;;;;;;;;;;5068965;28;20031;-62
2021/10/18 09:05:27;;;;;;;22.95;14.32;;;;;;;;;;5068943;28;20025;-62
2021/10/18 09:07:53;;;;;;;21.40;13.40;;;;;;;;;;5068530;28;20116;-63
2021/10/18 09:10:19;;;;;;;20.15;13.27;;;;;;;;;;5069141;28;20441;-62
2021/10/18 09:12:47;;;;;;;20.45;13.05;;;;;;;;;;5068893;28;20115;-62
2021/10/18 09:15:19;;;;;;;19.75;14.32;;;;;;;;;;5068753;28;20409;-61
2021/10/18 09:17:45;;;;;;;22.83;14.77;;;;;;;;;;5068635;28;20096;-62
2021/10/18 09:20:24;;;;;;;23.83;14.40;;;;;;;;;;5068668;28;20027;-61
2021/10/18 09:22:50;;;;;;;20.35;12.98;;;;;;;;;;5068535;28;20026;-62
2021/10/18 09:25:33;;;;;;;20.95;14.20;;;;;;;;;;5068423;28;20036;-61
2021/10/18 09:28:12;;;;;;;20.30;13.13;;;;;;;;;;5068684;28;20031;-60
2021/10/18 09:30:40;;;;;;;23.17;14.20;;;;;;;;;;5068670;28;20111;-62
2021/10/18 09:33:18;;;;;;;21.25;13.95;;;;;;;;;;5068600;28;20024;-62
2021/10/18 09:35:44;;;;;;;21.90;14.27;;;;;;;;;;5068151;28;20021;-61
2021/10/18 09:38:11;;;;;;;22.35;13.63;;;;;;;;;;5068734;28;20032;-62
2021/10/18 09:40:42;;;;;;;20.73;14.10;;;;;;;;;;5068641;28;20025;-61
2021/10/18 09:43:19;;;;;;;21.08;14.52;;;;;;;;;;5068446;28;20056;-59
2021/10/18 09:46:21;;;;;;;21.77;13.85;;;;;;;;;;5068306;28;20051;-60
2021/10/18 10:53:42;;;;;;;24.70;16.05;;;;;;;;;;5069531;28;20029;-62
2021/10/18 10:56:27;;;;;;;22.80;15.57;;;;;;;;;;5071017;28;20373;-61
2021/10/18 10:59:04;;;;;;;23.38;16.27;;;;;;;;;;5071619;28;20021;-62
2021/10/18 11:01:44;;;;;;;23.08;15.52;;;;;;;;;;5071555;28;20021;-60
2021/10/18 11:04:28;;;;;;;20.85;15.73;;;;;;;;;;5071896;28;20400;-61
2021/10/18 11:06:54;;;;;;;24.13;15.68;;;;;;;;;;5071140;28;20016;-61
2021/10/18 11:09:36;;;;;;;22.48;16.13;;;;;;;;;;5071523;28;20031;-62
2021/10/18 11:12:02;;;;;;;22.23;15.85;;;;;;;;;;5072801;28;20013;-66
2021/10/18 11:14:28;;;;;;;23.55;16.20;;;;;;;;;;5072696;28;20040;-64
2021/10/18 11:16:54;;;;;;;22.05;16.48;;;;;;;;;;5072655;28;20028;-65
2021/10/18 11:19:24;;;;;;;20.48;15.45;;;;;;;;;;5072708;28;20024;-62
2021/10/18 11:22:01;;;;;;;21.17;16.38;;;;;;;;;;5072619;28;20020;-65
2021/10/18 11:24:40;;;;;;;20.40;15.35;;;;;;;;;;5071297;28;20031;-63
2021/10/18 11:27:06;;;;;;;22.13;16.42;;;;;;;;;;5071331;28;20020;-65
2021/10/18 11:29:33;;;;;;;20.73;15.13;;;;;;;;;;5072673;28;20020;-64
2021/10/18 11:32:07;;;;;;;23.50;16.30;;;;;;;;;;5066767;28;20451;-62
2021/10/18 11:34:33;;;;;;;21.13;15.43;;;;;;;;;;5070101;28;20017;-63
2021/10/18 11:36:59;;;;;;;22.75;15.63;;;;;;;;;;5068551;28;20060;-66
2021/10/18 11:39:26;;;;;;;23.15;14.95;;;;;;;;;;5069073;28;20752;-64
2021/10/18 11:42:04;;;;;;;21.98;15.93;;;;;;;;;;5069973;28;20161;-62
2021/10/18 11:44:49;;;;;;;20.85;15.43;;;;;;;;;;5070204;28;20021;-64
2021/10/18 11:47:21;;;;;;;22.95;14.57;;;;;;;;;;5070122;28;20114;-66
2021/10/18 11:50:06;;;;;;;21.73;15.50;;;;;;;;;;5070400;28;20028;-65
2021/10/18 11:52:33;;;;;;;22.70;14.75;;;;;;;;;;5069362;28;20024;-66
2021/10/18 11:54:59;;;;;;;21.83;15.07;;;;;;;;;;5070490;28;20471;-64
2021/10/18 11:57:27;;;;;;;20.75;14.98;;;;;;;;;;5069877;28;20103;-64
2021/10/18 11:59:53;;;;;;;19.90;14.10;;;;;;;;;;5070810;28;20024;-64
2021/10/18 12:02:20;;;;;;;20.50;14.40;;;;;;;;;;5069985;28;20713;-60
2021/10/18 12:04:59;;;;;;;18.60;14.38;;;;;;;;;;5070163;28;20385;-62
2021/10/18 12:07:44;;;;;;;21.08;14.43;;;;;;;;;;5068444;28;20119;-67
2021/10/18 12:10:21;;;;;;;22.70;18.00;;;;;;;;;;5069452;28;20716;-69
2021/10/18 12:13:05;;;;;;;22.33;18.90;;;;;;;;;;5070428;28;20085;-68
2021/10/18 12:15:33;;;;;;;20.00;16.65;;;;;;;;;;5095302;22;20036;-66
2021/10/18 12:17:59;;;;;;;21.83;17.00;;;;;;;;;;5071928;28;20517;-65
2021/10/18 12:20:26;;;;;;;22.35;17.83;;;;;;;;;;5072736;28;20057;-64
2021/10/18 12:23:07;;;;;;;21.50;18.52;;;;;;;;;;5090976;28;20020;-66
2021/10/18 12:25:34;;;;;;;23.00;18.55;;;;;;;;;;5091608;28;20078;-63
2021/10/18 12:28:19;;;;;;;23.77;18.10;;;;;;;;;;5073479;28;20020;-65
2021/10/18 12:30:45;;;;;;;23.48;18.35;;;;;;;;;;5091209;28;20463;-67
2021/10/18 12:33:13;;;;;;;20.80;18.55;;;;;;;;;;5073134;28;20020;-68
2021/10/18 12:35:39;;;;;;;22.63;18.67;;;;;;;;;;5091137;28;20056;-67
2021/10/18 12:38:12;;;;;;;20.73;18.50;;;;;;;;;;5072978;28;20059;-67
2021/10/18 12:40:39;;;;;;;20.20;17.88;;;;;;;;;;5071372;28;20026;-66
2021/10/18 12:43:05;;;;;;;20.20;17.85;;;;;;;;;;5071968;28;20475;-67
2021/10/18 12:45:35;;;;;;;22.52;17.58;;;;;;;;;;5089986;28;20020;-67
2021/10/18 12:48:02;;;;;;;21.73;17.85;;;6.40;99.90;;;;;;5089620;28;20027;-67
2021/10/18 12:50:29;;;;;;;21.83;16.90;;;;;;;;;;5071255;28;20078;-66
2021/10/18 12:52:55;;;;;;;21.15;17.42;;;;;;;;;;5071425;28;20016;-67
2021/10/18 12:55:23;;;;;;;22.42;17.45;;;;;;;;;;5071048;28;20039;-65
2021/10/18 12:57:50;;;;;;;20.48;17.30;;;;;;;;;;5089047;28;20031;-68
2021/10/18 13:00:27;;;;;;;20.40;16.30;;;;;;;;;;5089362;28;20471;-69
2021/10/18 13:02:54;;;;;;;23.65;16.50;;;;;;;;;;5071109;28;20375;-68
2021/10/18 13:05:24;;;;;;;24.13;18.13;;;;;;;;;;5070902;28;20035;-69
2021/10/18 13:07:54;;;;;;;19.52;16.77;;;;;;;;;;5071257;28;20031;-68
2021/10/18 13:10:21;;;;;;;22.27;17.88;;;;;;;;;;5070400;28;20174;-67
2021/10/18 13:12:47;;;;;;;22.45;17.58;;;;;;;;;;5073761;28;20024;-68
2021/10/18 13:15:15;;;;;;;19.80;17.13;;;;;;;;;;5090756;28;20044;-68
2021/10/18 13:17:42;;;;;;;20.92;16.95;;;;;;;;;;5073025;28;20050;-65
2021/10/18 13:20:09;;;;;;;26.65;17.90;;;;;;;;;;5073410;28;20034;-67
2021/10/18 13:22:35;;;;;;;20.60;17.13;;;;;;;;;;5073109;28;20055;-68
2021/10/18 13:25:01;;;;;;;20.33;17.13;;;;;;;;;;5073410;28;20446;-67
2021/10/18 13:27:27;;;;;;;21.75;16.98;;;;;;;;;;5073563;28;20066;-68
2021/10/18 13:29:54;;;;;;;21.55;17.45;;;;;;;;;;5073551;28;20035;-68
2021/10/18 13:32:20;;;;;;;20.08;16.35;;;;;;;;;;5073663;28;20376;-67
2021/10/18 13:34:46;;;;;;;20.88;16.30;;;;;;;;;;5073366;28;20030;-68
2021/10/18 13:37:12;;;;;;;20.00;15.70;;;;;;;;;;5073261;28;20031;-69
2021/10/18 13:39:42;;;;;;;24.95;16.50;;;;;;;;;;5073372;28;20031;-66
2021/10/18 13:42:08;;;;;;;20.50;15.70;;;;;;;;;;5073471;28;20148;-68
2021/10/18 13:44:35;;;;;;;21.17;15.73;;;;;;;;;;5073861;28;20028;-67
2021/10/18 13:47:01;;;;;;;21.27;16.05;;;;;;;;;;5073089;28;20024;-68
2021/10/18 13:49:27;;;;;;;20.38;16.17;;;;;;;;;;5073114;28;20040;-68
2021/10/18 13:51:53;;;;;;;18.75;15.27;;;;;;;;;;5073997;28;20107;-67
2021/10/18 13:54:19;;;;;;;18.90;15.48;;;;;;;;;;5073595;28;20043;-67
2021/10/18 13:56:46;;;;;;;20.45;15.52;;;;;;;;;;5073255;28;20027;-67
2021/10/18 13:59:12;;;;;;;20.13;15.85;;;;;;;;;;5075041;28;20024;-67
2021/10/18 14:01:37;;;;;;;20.83;15.60;;;23.10;99.90;;;;;;5073483;28;20340;-68
2021/10/18 14:04:06;;;;;;;19.38;15.75;;;;;;;;;;5073347;28;20095;-66
2021/10/18 14:06:32;;;;;;;21.73;15.80;;;;;;;;;;5072632;28;20081;-65
2021/10/18 14:08:58;;;;;;;20.17;16.33;;;;;;;;;;5072874;28;20024;-67
2021/10/18 14:11:24;;;;;;;24.50;15.70;;;;;;;;;;5073067;28;20069;-67
2021/10/18 14:13:50;;;;;;;19.63;14.93;;;;;;;;;;5073101;28;20044;-68
2021/10/18 14:16:16;;;;;;;19.65;16.00;;;;;;;;;;5072655;28;20067;-68
2021/10/18 14:18:43;;;;;;;21.17;16.40;;;;;;;;;;5072940;28;20020;-68
2021/10/18 14:21:10;;;;;;;19.83;15.80;;;;;;;;;;5072505;28;20028;-67
2021/10/18 14:23:36;;;;;;;21.73;15.13;;;;;;;;;;5073113;28;20024;-68
2021/10/18 14:26:03;;;;;;;22.48;15.35;;;;;;;;;;5072589;28;20432;-67
2021/10/18 14:28:29;;;;;;;18.80;14.82;;;;;;;;;;5073252;28;20024;-68
2021/10/18 14:30:55;;;;;;;19.45;15.75;;;;;;;;;;5075818;28;20459;-69
2021/10/18 14:33:21;;;;;;;18.58;15.00;;;;;;;;;;5076970;28;20073;-68
2021/10/18 14:35:47;;;;;;;20.80;15.50;;;;;;;;;;5076807;28;20114;-68
2021/10/18 14:38:13;;;;;;;20.20;15.20;;;;;;;;;;5076683;28;20036;-68
2021/10/18 14:40:39;;;;;;;20.55;15.82;;;;;;;;;;5077056;28;20041;-67
2021/10/18 14:43:05;;;;;;;20.02;14.63;;;;;;;;;;5095099;28;20053;-69
2021/10/18 14:45:32;;;;;;;20.70;15.02;;;;;;;;;;5076689;28;20024;-69
2021/10/18 14:48:00;;;;;;;19.63;15.30;;;;;;;;;;5076942;28;20028;-68
2021/10/18 14:50:26;;;;;;;19.10;15.27;;;;;;;;;;5077272;28;20043;-67
2021/10/18 14:52:52;;;;;;;20.30;15.90;;;;;;;;;;5076954;28;20055;-68
2021/10/18 14:55:18;;;;;;;20.05;15.75;;;;;;;;;;5076503;28;20052;-68
2021/10/18 14:57:44;;;;;;;20.10;14.60;;;;;;;;;;5094635;28;20023;-68
2021/10/18 15:00:10;;;;;;;21.33;15.50;;;;;;;;;;5094846;28;20039;-67
2021/10/18 15:02:37;;;;;;;20.05;14.88;;;;;;;;;;5076249;28;20110;-67
2021/10/18 15:05:03;;;;;;;19.10;14.38;;;;;;;;;;5075847;28;20027;-67
2021/10/18 15:07:30;;;;;;;20.50;15.50;;;;;;;;;;5075317;28;20464;-67
2021/10/18 15:09:56;;;;;;;20.70;15.55;;;;;;;;;;5075759;28;20099;-66
2021/10/18 15:12:22;;;;;;;19.63;15.07;;;;;;;;;;5076024;28;20321;-65
2021/10/18 15:14:48;;;;;;;20.45;15.43;;;;;;;;;;5093830;28;20012;-68
2021/10/18 15:17:14;;;;;;;19.35;14.80;;;;;;;;;;5075879;28;20024;-65
2021/10/18 15:19:40;;;;;;;18.75;14.93;;;;;;;;;;5094361;28;20031;-65
2021/10/18 15:22:14;;;;;;;22.52;15.57;;;;;;;;;;5093709;28;20024;-66
2021/10/18 15:24:40;;;;;;;24.08;14.80;;;;;;;;;;5094122;28;20020;-65
2021/10/18 15:27:06;;;;;;;19.58;14.63;;;;;;;;;;5093413;28;20031;-65
2021/10/18 15:29:32;;;;;;;21.60;15.65;;;;;;;;;;5075724;28;20024;-65